createdAt,value
2017-11-20T00:02:20.641Z,1.40
2017-11-20T00:04:47.195Z,1.40
2017-11-20T00:07:13.385Z,1.30
2017-11-20T00:09:39.585Z,1.10
2017-11-20T00:12:05.933Z,1.60
2017-11-20T00:14:32.122Z,1.20
2017-11-20T00:16:58.331Z,1.20
2017-11-20T00:19:24.586Z,1.23
2017-11-20T00:21:50.778Z,1.50
2017-11-20T00:24:17.097Z,1.60
2017-11-20T00:26:43.432Z,1.40
2017-11-20T00:29:09.640Z,1.20
2017-11-20T00:31:35.852Z,1.20
2017-11-20T00:34:02.119Z,2.07
2017-11-20T00:36:28.394Z,1.20
2017-11-20T00:38:54.597Z,1.30
2017-11-20T00:41:20.851Z,1.00
2017-11-20T00:43:47.042Z,1.30
2017-11-20T00:46:13.255Z,1.30
2017-11-20T00:48:39.617Z,1.60
2017-11-20T00:51:05.803Z,1.37
2017-11-20T00:53:31.993Z,1.17
2017-11-20T00:55:58.242Z,1.37
2017-11-20T00:58:24.656Z,1.30
2017-11-20T01:00:50.845Z,1.43
2017-11-20T01:03:17.087Z,1.27
2017-11-20T01:05:43.366Z,1.47
2017-11-20T01:08:09.586Z,1.40
2017-11-20T01:10:35.832Z,1.50
2017-11-20T01:13:02.028Z,1.40
2017-11-20T01:15:28.226Z,1.30
2017-11-20T01:17:54.444Z,1.50
2017-11-20T01:20:20.713Z,1.10
2017-11-20T01:22:46.894Z,1.20
2017-11-20T01:25:13.156Z,1.43
2017-11-20T01:27:39.393Z,1.17
2017-11-20T01:30:05.594Z,1.27
2017-11-20T01:32:31.849Z,1.10
2017-11-20T01:34:58.098Z,1.10
2017-11-20T01:37:24.272Z,1.13
2017-11-20T01:39:50.702Z,1.20
2017-11-20T01:42:16.956Z,1.20
2017-11-20T01:44:43.430Z,1.10
2017-11-20T01:47:09.643Z,1.23
2017-11-20T01:49:35.980Z,1.50
2017-11-20T01:52:02.311Z,1.87
2017-11-20T01:54:28.506Z,1.27
2017-11-20T01:56:54.984Z,1.23
2017-11-20T01:59:21.416Z,1.10
2017-11-20T02:01:47.698Z,1.30
2017-11-20T02:04:13.953Z,1.23
2017-11-20T02:06:40.154Z,1.80
2017-11-20T02:09:06.345Z,1.60
2017-11-20T02:11:32.698Z,1.00
2017-11-20T02:13:58.957Z,1.47
2017-11-20T02:16:25.149Z,1.20
2017-11-20T02:18:51.628Z,1.13
2017-11-20T02:21:18.078Z,1.30
2017-11-20T02:23:44.286Z,1.43
2017-11-20T02:26:10.566Z,1.10
2017-11-20T02:28:36.798Z,1.43
2017-11-20T02:31:03.028Z,1.00
2017-11-20T02:33:29.297Z,1.70
2017-11-20T02:35:55.534Z,1.33
2017-11-20T02:38:21.750Z,1.00
2017-11-20T02:40:48.109Z,1.70
2017-11-20T02:43:14.318Z,1.20
2017-11-20T02:45:40.530Z,1.00
2017-11-20T02:48:06.803Z,1.20
2017-11-20T02:50:33.396Z,1.60
2017-11-20T02:52:59.610Z,1.40
2017-11-20T02:55:25.974Z,1.40
2017-11-20T02:57:52.184Z,1.07
2017-11-20T03:00:18.630Z,1.43
2017-11-20T03:02:44.881Z,1.53
2017-11-20T03:05:11.080Z,1.30
2017-11-20T03:07:37.306Z,1.30
2017-11-20T03:10:03.781Z,1.80
2017-11-20T03:12:30.057Z,1.33
2017-11-20T03:14:56.354Z,1.60
2017-11-20T03:17:22.605Z,1.43
2017-11-20T03:19:48.786Z,1.13
2017-11-20T03:22:14.979Z,1.47
2017-11-20T03:24:41.321Z,1.27
2017-11-20T03:27:07.534Z,1.30
2017-11-20T03:29:33.729Z,1.23
2017-11-20T03:32:00.053Z,1.17
2017-11-20T03:34:26.255Z,1.07
2017-11-20T03:36:52.630Z,1.30
2017-11-20T03:39:18.845Z,1.30
2017-11-20T03:41:45.066Z,1.30
2017-11-20T03:44:11.566Z,1.20
2017-11-20T03:46:37.824Z,1.17
2017-11-20T03:49:04.022Z,1.17
2017-11-20T03:51:30.231Z,1.10
2017-11-20T03:53:56.558Z,1.30
2017-11-20T03:56:22.756Z,1.27
2017-11-20T03:58:48.942Z,1.10
2017-11-20T04:01:15.173Z,1.20
2017-11-20T04:03:41.358Z,1.10
2017-11-20T04:06:07.538Z,1.40
2017-11-20T04:08:33.777Z,1.40
2017-11-20T04:10:59.998Z,1.10
2017-11-20T04:13:26.171Z,1.40
2017-11-20T04:15:52.496Z,1.00
2017-11-20T04:18:18.690Z,1.03
2017-11-20T04:20:44.966Z,1.40
2017-11-20T04:23:11.295Z,1.10
2017-11-20T04:25:37.547Z,1.40
2017-11-20T04:28:03.976Z,1.20
2017-11-20T04:30:30.201Z,1.10
2017-11-20T04:32:56.382Z,1.60
2017-11-20T04:35:22.564Z,1.20
2017-11-20T04:37:48.923Z,1.20
2017-11-20T04:40:15.110Z,1.90
2017-11-20T04:42:41.301Z,0.93
2017-11-20T04:45:07.774Z,1.20
2017-11-20T04:47:33.974Z,1.20
2017-11-20T04:50:00.178Z,1.80
2017-11-20T04:52:26.497Z,1.40
2017-11-20T04:54:52.682Z,1.10
2017-11-20T04:57:18.880Z,1.20
2017-11-20T04:59:45.207Z,1.40
2017-11-20T05:02:11.492Z,1.30
2017-11-20T05:04:37.683Z,1.27
2017-11-20T05:07:03.958Z,1.30
2017-11-20T05:09:30.426Z,1.10
2017-11-20T05:11:56.621Z,1.10
2017-11-20T05:14:22.933Z,1.43
2017-11-20T05:16:49.155Z,1.40
2017-11-20T05:19:15.594Z,1.20
2017-11-20T05:21:41.922Z,1.10
2017-11-20T05:24:08.141Z,1.20
2017-11-20T05:26:34.352Z,1.17
2017-11-20T05:29:00.609Z,1.10
2017-11-20T05:31:27.029Z,1.40
2017-11-20T05:33:53.484Z,1.10
2017-11-20T05:36:19.732Z,1.13
2017-11-20T05:38:45.922Z,1.60
2017-11-20T05:41:12.117Z,1.23
2017-11-20T05:43:38.452Z,1.17
2017-11-20T05:46:04.650Z,1.67
2017-11-20T05:48:30.841Z,1.10
2017-11-20T05:50:57.178Z,1.20
2017-11-20T05:53:23.510Z,1.30
2017-11-20T05:55:49.713Z,1.33
2017-11-20T05:58:16.137Z,1.27
2017-11-20T06:00:42.359Z,1.20
2017-11-20T06:03:08.550Z,1.43
2017-11-20T06:05:34.878Z,1.20
2017-11-20T06:08:01.294Z,1.10
2017-11-20T06:10:27.508Z,1.00
2017-11-20T06:12:53.841Z,1.20
2017-11-20T06:15:20.070Z,1.10
2017-11-20T06:17:46.302Z,1.17
2017-11-20T06:20:12.574Z,1.30
2017-11-20T06:22:39.010Z,1.23
2017-11-20T06:25:05.196Z,1.00
2017-11-20T06:27:31.517Z,1.43
2017-11-20T06:29:57.693Z,1.20
2017-11-20T06:32:23.865Z,1.00
2017-11-20T06:34:50.096Z,1.43
2017-11-20T06:37:17.092Z,1.63
2017-11-20T06:39:43.438Z,1.40
2017-11-20T06:42:10.104Z,2.53
2017-11-20T06:44:36.359Z,1.30
2017-11-20T06:47:02.565Z,1.70
2017-11-20T06:49:28.885Z,1.93
2017-11-20T06:51:55.112Z,1.87
2017-11-20T06:54:21.317Z,2.23
2017-11-20T06:56:47.646Z,1.43
2017-11-20T06:59:13.839Z,1.40
2017-11-20T07:01:40.289Z,1.30
2017-11-20T07:04:06.531Z,1.40
2017-11-20T07:06:32.730Z,1.30
2017-11-20T07:08:58.939Z,1.37
2017-11-20T07:11:25.307Z,1.47
2017-11-20T07:13:51.490Z,1.37
2017-11-20T07:16:17.691Z,1.53
2017-11-20T07:18:43.979Z,2.60
2017-11-20T07:21:10.174Z,2.10
2017-11-20T07:23:36.393Z,2.10
2017-11-20T07:26:15.005Z,1.60
2017-11-20T07:28:53.242Z,2.07
2017-11-20T07:31:28.296Z,1.80
2017-11-20T07:34:06.612Z,1.73
2017-11-20T07:36:45.212Z,2.20
2017-11-20T07:39:11.524Z,1.60
2017-11-20T07:41:49.809Z,2.90
2017-11-20T07:44:16.020Z,1.70
2017-11-20T07:46:42.299Z,1.60
2017-11-20T07:49:08.541Z,1.57
2017-11-20T07:51:34.738Z,1.77
2017-11-20T07:54:00.942Z,2.00
2017-11-20T07:56:27.201Z,1.80
2017-11-20T07:58:53.395Z,1.60
2017-11-20T08:01:19.591Z,1.57
2017-11-20T08:03:46.117Z,2.10
2017-11-20T08:06:12.451Z,1.50
2017-11-20T08:08:38.673Z,1.70
2017-11-20T08:11:05.030Z,1.80
2017-11-20T08:13:31.238Z,1.47
2017-11-20T08:15:57.431Z,2.27
2017-11-20T08:18:23.923Z,1.60
2017-11-20T08:20:50.118Z,1.43
2017-11-20T08:23:16.561Z,1.60
2017-11-20T08:25:42.897Z,1.63
2017-11-20T08:28:09.131Z,1.47
2017-11-20T08:30:35.355Z,1.40
2017-11-20T08:33:01.596Z,1.87
2017-11-20T08:35:27.797Z,1.87
2017-11-20T08:37:54.005Z,1.57
2017-11-20T08:40:21.408Z,1.30
2017-11-20T08:42:48.246Z,1.83
2017-11-20T08:45:14.483Z,1.57
2017-11-20T08:47:40.732Z,1.70
2017-11-20T08:50:06.948Z,1.43
2017-11-20T08:52:33.459Z,1.50
2017-11-20T08:54:59.739Z,2.23
2017-11-20T08:57:25.956Z,1.73
2017-11-20T08:59:52.170Z,1.33
2017-11-20T09:02:18.490Z,1.30
2017-11-20T09:04:44.702Z,0.93
2017-11-20T09:07:10.923Z,1.20
2017-11-20T09:09:37.335Z,1.70
2017-11-20T09:12:03.538Z,1.50
2017-11-20T09:14:29.844Z,1.90
2017-11-20T09:16:56.174Z,1.53
2017-11-20T09:19:22.531Z,1.50
2017-11-20T09:21:48.749Z,1.87
2017-11-20T09:24:15.023Z,1.10
2017-11-20T09:26:41.370Z,1.40
2017-11-20T09:29:07.660Z,1.30
2017-11-20T09:31:34.062Z,1.33
2017-11-20T09:34:00.297Z,1.50
2017-11-20T09:36:26.500Z,1.33
2017-11-20T09:38:52.757Z,1.60
2017-11-20T09:41:18.962Z,1.40
2017-11-20T09:43:45.168Z,1.57
2017-11-20T09:46:11.443Z,1.40
2017-11-20T09:48:37.896Z,1.60
2017-11-20T09:51:04.234Z,1.10
2017-11-20T09:53:30.574Z,1.47
2017-11-20T09:55:56.786Z,1.50
2017-11-20T09:58:22.989Z,1.40
2017-11-20T10:00:49.338Z,1.40
2017-11-20T10:03:15.791Z,1.33
2017-11-20T10:05:42.001Z,1.47
2017-11-20T10:08:08.379Z,1.33
2017-11-20T10:10:34.598Z,1.73
2017-11-20T10:13:01.004Z,1.20
2017-11-20T10:15:27.431Z,1.47
2017-11-20T10:17:53.654Z,1.30
2017-11-20T10:20:19.949Z,1.37
2017-11-20T10:22:46.207Z,1.30
2017-11-20T10:25:12.509Z,1.37
2017-11-20T10:27:38.730Z,1.50
2017-11-20T10:30:04.942Z,1.53
2017-11-20T10:32:31.233Z,1.20
2017-11-20T10:34:57.490Z,1.20
2017-11-20T10:37:23.702Z,1.47
2017-11-20T10:39:50.018Z,1.43
2017-11-20T10:42:22.642Z,1.27
2017-11-20T10:44:48.883Z,1.10
2017-11-20T10:47:15.148Z,1.53
2017-11-20T10:49:41.363Z,1.27
2017-11-20T10:52:07.588Z,1.30
2017-11-20T10:54:33.912Z,1.20
2017-11-20T10:57:00.103Z,1.73
2017-11-20T10:59:26.344Z,1.30
2017-11-20T11:01:52.654Z,1.70
2017-11-20T11:04:18.863Z,1.17
2017-11-20T11:06:45.091Z,1.23
2017-11-20T11:09:11.350Z,1.30
2017-11-20T11:11:37.800Z,1.33
2017-11-20T11:14:04.005Z,1.37
2017-11-20T11:16:30.640Z,1.90
2017-11-20T11:18:56.834Z,1.57
2017-11-20T11:21:23.052Z,1.70
2017-11-20T11:23:50.247Z,2.00
2017-11-20T11:26:16.934Z,1.50
2017-11-20T11:28:43.524Z,1.87
2017-11-20T11:31:09.966Z,1.63
2017-11-20T11:33:36.328Z,1.80
2017-11-20T11:36:04.009Z,2.13
2017-11-20T11:38:30.496Z,2.00
2017-11-20T11:40:56.957Z,1.50
2017-11-20T11:43:23.149Z,1.73
2017-11-20T11:45:49.422Z,1.63
2017-11-20T11:48:15.625Z,1.97
2017-11-20T11:50:41.847Z,1.60
2017-11-20T11:53:08.197Z,1.53
2017-11-20T11:55:34.392Z,1.80
2017-11-20T11:58:06.524Z,1.43
2017-11-20T12:00:32.958Z,1.67
2017-11-20T12:02:59.169Z,1.60
2017-11-20T12:05:25.477Z,1.67
2017-11-20T12:07:51.742Z,2.20
2017-11-20T12:10:17.966Z,3.07
2017-11-20T12:12:44.173Z,2.53
2017-11-20T12:15:10.547Z,4.00
2017-11-20T12:17:36.742Z,4.00
2017-11-20T12:20:02.996Z,3.20
2017-11-20T12:22:29.377Z,3.13
2017-11-20T12:24:55.673Z,4.57
2017-11-20T12:27:21.891Z,4.00
2017-11-20T12:29:48.390Z,2.93
2017-11-20T12:32:14.871Z,3.00
2017-11-20T12:34:41.095Z,3.33
2017-11-20T12:37:07.396Z,4.07
2017-11-20T12:39:33.862Z,3.47
2017-11-20T12:42:00.067Z,3.30
2017-11-20T12:44:26.391Z,3.40
2017-11-20T12:46:52.649Z,3.10
2017-11-20T12:49:18.837Z,3.13
2017-11-20T12:51:45.093Z,3.23
2017-11-20T12:54:11.301Z,2.90
2017-11-20T12:56:37.509Z,3.20
2017-11-20T12:59:03.759Z,2.57
2017-11-20T13:01:29.968Z,2.90
2017-11-20T13:03:56.195Z,3.00
2017-11-20T13:06:22.524Z,2.77
2017-11-20T13:08:48.733Z,2.67
2017-11-20T13:11:14.944Z,2.53
2017-11-20T13:13:41.230Z,2.30
2017-11-20T13:16:07.432Z,3.30
2017-11-20T13:21:24.690Z,2.70
2017-11-20T13:23:50.961Z,2.10
2017-11-20T13:26:17.363Z,3.00
2017-11-20T13:28:43.791Z,2.80
2017-11-20T13:31:10.019Z,2.20
2017-11-20T13:33:36.346Z,2.50
2017-11-20T13:36:02.615Z,2.73
2017-11-20T13:38:28.823Z,3.07
2017-11-20T13:40:55.030Z,2.60
2017-11-20T13:43:21.490Z,2.13
2017-11-20T13:45:47.721Z,3.00
2017-11-20T13:48:14.115Z,2.00
2017-11-20T13:50:40.433Z,2.27
2017-11-20T13:53:06.732Z,2.53
2017-11-20T13:55:32.978Z,2.93
2017-11-20T13:57:59.482Z,2.80
2017-11-20T14:00:25.677Z,2.50
2017-11-20T14:02:51.982Z,2.70
2017-11-20T14:05:18.550Z,2.80
2017-11-20T14:07:44.794Z,2.60
2017-11-20T14:10:11.051Z,2.83
2017-11-20T14:12:37.633Z,2.57
2017-11-20T14:15:03.923Z,2.80
2017-11-20T14:17:30.203Z,3.13
2017-11-20T14:19:56.516Z,2.70
2017-11-20T14:22:22.989Z,2.80
2017-11-20T14:24:49.221Z,2.30
2017-11-20T14:27:15.753Z,2.53
2017-11-20T14:29:41.965Z,2.80
2017-11-20T14:32:08.332Z,2.67
2017-11-20T14:34:34.718Z,2.23
2017-11-20T14:37:00.959Z,2.47
2017-11-20T14:39:27.242Z,2.80
2017-11-20T14:41:53.535Z,2.17
2017-11-20T14:44:20.015Z,2.33
2017-11-20T14:46:46.314Z,2.60
2017-11-20T14:49:12.754Z,2.70
2017-11-20T14:54:39.926Z,2.27
2017-11-20T14:57:06.247Z,2.53
2017-11-20T14:59:32.621Z,1.60
2017-11-20T15:01:59.981Z,2.60
2017-11-20T15:04:26.365Z,2.60
2017-11-20T15:09:24.558Z,2.93
2017-11-20T15:11:51.073Z,2.40
2017-11-20T15:14:17.446Z,2.37
2017-11-20T15:16:44.021Z,2.00
2017-11-20T15:19:10.294Z,3.03
2017-11-20T15:21:36.560Z,2.10
2017-11-20T15:24:02.816Z,1.93
2017-11-20T15:26:29.363Z,1.70
2017-11-20T15:28:55.898Z,1.93
2017-11-20T15:31:22.145Z,2.17
2017-11-20T15:33:48.515Z,2.00
2017-11-20T15:36:15.050Z,2.57
2017-11-20T15:38:41.298Z,2.03
2017-11-20T15:41:07.527Z,2.23
2017-11-20T15:43:33.784Z,2.20
2017-11-20T15:46:00.059Z,2.10
2017-11-20T15:48:26.265Z,2.37
2017-11-20T15:50:52.614Z,1.80
2017-11-20T15:53:18.807Z,2.37
2017-11-20T15:55:45.023Z,1.83
2017-11-20T15:58:11.558Z,2.00
2017-11-20T16:00:37.812Z,1.93
2017-11-20T16:03:04.031Z,2.13
2017-11-20T16:05:30.369Z,2.33
2017-11-20T16:07:56.561Z,2.20
2017-11-20T16:10:22.999Z,1.63
2017-11-20T16:12:49.520Z,2.10
2017-11-20T16:15:15.733Z,1.73
2017-11-20T16:17:41.965Z,2.40
2017-11-20T16:20:08.544Z,1.90
2017-11-20T16:22:34.763Z,1.83
2017-11-20T16:25:00.960Z,1.77
2017-11-20T16:27:27.320Z,1.53
2017-11-20T16:29:53.510Z,1.50
2017-11-20T16:32:19.764Z,1.70
2017-11-20T16:34:46.026Z,2.13
2017-11-20T16:37:12.198Z,2.07
2017-11-20T16:39:38.621Z,2.00
2017-11-20T16:42:05.114Z,2.00
2017-11-20T16:44:31.306Z,1.90
2017-11-20T16:46:57.512Z,1.90
2017-11-20T16:49:23.783Z,2.50
2017-11-20T16:51:50.065Z,2.33
2017-11-20T16:54:16.245Z,2.17
2017-11-20T16:56:42.609Z,2.30
2017-11-20T16:59:08.895Z,2.67
2017-11-20T17:01:47.422Z,2.20
2017-11-20T17:04:13.849Z,3.43
2017-11-20T17:06:40.033Z,2.50
2017-11-20T17:09:06.711Z,2.00
2017-11-20T17:11:32.927Z,3.03
2017-11-20T17:13:59.134Z,2.00
2017-11-20T17:16:25.441Z,1.80
2017-11-20T17:18:51.633Z,3.03
2017-11-20T17:21:17.857Z,2.33
2017-11-20T17:23:44.394Z,2.60
2017-11-20T17:26:10.855Z,2.07
2017-11-20T17:28:37.386Z,3.00
2017-11-20T17:31:03.715Z,3.27
2017-11-20T17:33:29.931Z,2.43
2017-11-20T17:35:56.111Z,2.13
2017-11-20T17:38:22.385Z,2.20
2017-11-20T17:40:48.607Z,2.63
2017-11-20T17:43:15.046Z,3.57
2017-11-20T17:45:41.317Z,3.30
2017-11-20T17:48:07.755Z,2.13
2017-11-20T17:50:33.975Z,2.27
2017-11-20T17:53:00.262Z,2.20
2017-11-20T17:55:26.487Z,2.10
2017-11-20T17:57:52.670Z,2.13
2017-11-20T18:00:19.001Z,2.30
2017-11-20T18:02:45.210Z,2.50
2017-11-20T18:05:11.642Z,2.30
2017-11-20T18:07:37.896Z,2.80
2017-11-20T18:10:04.100Z,2.80
2017-11-20T18:12:30.288Z,2.53
2017-11-20T18:14:56.634Z,2.47
2017-11-20T18:17:22.881Z,2.33
2017-11-20T18:19:49.090Z,3.17
2017-11-20T18:22:15.593Z,2.27
2017-11-20T18:24:42.014Z,3.00
2017-11-20T18:27:08.446Z,2.33
2017-11-20T18:29:34.963Z,2.50
2017-11-20T18:32:01.173Z,2.40
2017-11-20T18:34:27.371Z,3.60
2017-11-20T18:36:53.656Z,2.20
2017-11-20T18:39:20.088Z,2.50
2017-11-20T18:41:46.330Z,2.00
2017-11-20T18:44:12.602Z,2.53
2017-11-20T18:46:38.851Z,2.23
2017-11-20T18:49:05.111Z,3.27
2017-11-20T18:51:31.469Z,2.47
2017-11-20T18:53:58.002Z,2.30
2017-11-20T18:56:24.258Z,2.03
2017-11-20T18:58:50.499Z,2.50
2017-11-20T19:01:28.854Z,2.43
2017-11-20T19:07:10.196Z,2.77
2017-11-20T19:09:36.523Z,2.50
2017-11-20T19:12:02.752Z,2.87
2017-11-20T19:14:28.961Z,2.63
2017-11-20T19:16:55.227Z,2.77
2017-11-20T19:19:21.427Z,2.50
2017-11-20T19:21:47.621Z,2.50
2017-11-20T19:24:13.872Z,2.97
2017-11-20T19:26:40.066Z,2.97
2017-11-20T19:29:06.496Z,2.63
2017-11-20T19:31:32.987Z,2.50
2017-11-20T19:33:59.183Z,2.60
2017-11-20T19:36:25.393Z,2.20
2017-11-20T19:38:51.734Z,2.73
2017-11-20T19:41:17.983Z,2.57
2017-11-20T19:43:44.441Z,2.37
2017-11-20T19:46:10.688Z,2.50
2017-11-20T19:48:36.885Z,2.27
2017-11-20T19:51:03.172Z,2.47
2017-11-20T19:53:29.428Z,2.40
2017-11-20T19:55:55.609Z,2.27
2017-11-20T19:58:21.806Z,2.83
2017-11-20T20:00:48.052Z,2.00
2017-11-20T20:03:14.241Z,2.00
2017-11-20T20:05:40.427Z,2.83
2017-11-20T20:08:06.679Z,2.03
2017-11-20T20:10:32.889Z,2.40
2017-11-20T20:12:59.099Z,2.40
2017-11-20T20:18:26.473Z,2.50
2017-11-20T20:20:52.954Z,1.90
2017-11-20T20:23:19.394Z,2.30
2017-11-20T20:25:45.597Z,2.30
2017-11-20T20:28:11.938Z,2.37
2017-11-20T20:30:38.146Z,2.80
2017-11-20T20:33:04.619Z,2.23
2017-11-20T20:35:30.891Z,2.40
2017-11-20T20:37:57.116Z,2.30
2017-11-20T20:40:23.426Z,1.90
2017-11-20T20:42:49.703Z,2.10
2017-11-20T20:45:15.997Z,2.40
2017-11-20T20:47:42.208Z,2.37
2017-11-20T20:50:08.540Z,2.40
2017-11-20T20:52:34.972Z,1.93
2017-11-20T20:55:01.157Z,2.33
2017-11-20T20:57:27.484Z,2.53
2017-11-20T20:59:53.817Z,1.87
2017-11-20T21:02:20.265Z,1.80
2017-11-20T21:04:46.610Z,1.90
2017-11-20T21:07:12.807Z,2.20
2017-11-20T21:09:45.103Z,2.53
2017-11-20T21:12:17.784Z,2.60
2017-11-20T21:14:43.980Z,2.20
2017-11-20T21:17:10.174Z,2.17
2017-11-20T21:19:36.672Z,2.43
2017-11-20T21:22:02.861Z,2.43
2017-11-20T21:24:29.096Z,2.10
2017-11-20T21:26:55.419Z,2.20
2017-11-20T21:29:21.611Z,2.20
2017-11-20T21:31:47.831Z,2.37
2017-11-20T21:34:14.087Z,2.20
2017-11-20T21:36:40.300Z,2.40
2017-11-20T21:39:06.505Z,2.00
2017-11-20T21:41:32.979Z,2.27
2017-11-20T21:43:59.177Z,2.07
2017-11-20T21:46:25.377Z,2.47
2017-11-20T21:48:51.722Z,2.93
2017-11-20T21:51:17.944Z,1.90
2017-11-20T21:53:44.113Z,2.03
2017-11-20T21:56:10.417Z,2.20
2017-11-20T21:58:36.600Z,2.03
2017-11-20T22:01:02.812Z,2.73
2017-11-20T22:03:29.045Z,3.27
2017-11-20T22:05:55.228Z,2.27
2017-11-20T22:08:21.419Z,1.83
2017-11-20T22:10:47.695Z,2.20
2017-11-20T22:13:27.069Z,2.07
2017-11-20T22:15:53.400Z,2.37
2017-11-20T22:18:19.608Z,1.83
2017-11-20T22:20:45.834Z,2.30
2017-11-20T22:23:12.189Z,2.37
2017-11-20T22:25:38.401Z,2.20
2017-11-20T22:28:04.588Z,1.97
2017-11-20T22:30:30.972Z,2.27
2017-11-20T22:32:57.425Z,2.37
2017-11-20T22:35:23.639Z,2.40
2017-11-20T22:37:50.122Z,1.93
2017-11-20T22:40:16.313Z,1.50
2017-11-20T22:42:42.528Z,1.63
2017-11-20T22:45:08.841Z,2.00
2017-11-20T22:47:35.297Z,1.77
2017-11-20T22:50:01.498Z,1.97
2017-11-20T22:52:27.847Z,1.67
2017-11-20T22:54:54.049Z,2.10
2017-11-20T22:57:20.234Z,2.40
2017-11-20T22:59:46.736Z,1.83
2017-11-20T23:02:12.953Z,2.23
2017-11-20T23:04:39.167Z,1.80
2017-11-20T23:07:05.522Z,2.43
2017-11-20T23:09:31.733Z,2.50
2017-11-20T23:11:57.986Z,2.80
2017-11-20T23:14:24.243Z,2.33
2017-11-20T23:16:50.442Z,2.17
2017-11-20T23:19:16.670Z,2.20
2017-11-20T23:21:42.993Z,2.40
2017-11-20T23:24:09.189Z,2.23
2017-11-20T23:26:35.389Z,2.70
2017-11-20T23:29:01.881Z,2.37
2017-11-20T23:31:28.253Z,2.63
2017-11-20T23:33:54.680Z,2.60
2017-11-20T23:36:21.020Z,1.80
2017-11-20T23:38:47.222Z,3.00
2017-11-20T23:41:13.435Z,2.03
2017-11-20T23:43:39.776Z,1.97
2017-11-20T23:46:05.983Z,2.50
2017-11-20T23:48:32.175Z,2.10
2017-11-20T23:50:58.449Z,1.70
2017-11-20T23:53:33.714Z,1.70
2017-11-20T23:55:59.971Z,1.80
2017-11-20T23:58:26.180Z,1.63
